Time;durP1;ratioP1;P1;durP2;ratioP2;P2;SDS_P1;SDS_P2;PMS_P1;PMS_P2;Temp;Humidity;BMP_temperature;BMP_pressure;BME280_temperature;BME280_humidity;BME280_pressure;Samples;Min_cycle;Max_cycle;Signal;HPM_P1;HPM_P2
2022/10/19 00:00:25;;;;;;;8.48;4.00;;;;;;;4.15;100.00;103056.41;5054094;28;20025;-76
2022/10/19 00:02:50;;;;;;;5.78;4.50;;;;;;;4.12;100.00;103067.94;5053707;28;20033;-75
2022/10/19 00:05:16;;;;;;;7.80;4.85;;;;;;;4.09;100.00;103062.75;5053997;28;20036;-76
2022/10/19 00:07:41;;;;;;;5.20;3.72;;;;;;;4.10;100.00;103071.50;5053867;28;20093;-76
2022/10/19 00:10:07;;;;;;;6.07;4.43;;;;;;;4.08;100.00;103068.06;5054263;28;20040;-76
2022/10/19 00:12:32;;;;;;;10.98;5.15;;;;;;;4.08;100.00;103068.91;5054053;28;20025;-75
2022/10/19 00:14:58;;;;;;;6.50;4.70;;;;;;;4.11;100.00;103060.91;5053726;28;20163;-75
2022/10/19 00:17:23;;;;;;;5.18;3.85;;;;;;;4.09;100.00;103061.88;5053676;28;20124;-75
2022/10/19 00:19:49;;;;;;;6.72;3.95;;;;;;;4.04;100.00;103062.00;5053138;28;20085;-75
2022/10/19 00:22:14;;;;;;;7.40;4.55;;;;;;;3.98;100.00;103055.13;5053891;28;20059;-75
2022/10/19 00:24:39;;;;;;;13.68;4.75;;;;;;;3.97;100.00;103058.69;5052980;28;20029;-75
2022/10/19 00:27:05;;;;;;;8.77;4.82;;;;;;;3.99;100.00;103062.13;5052744;28;20036;-75
2022/10/19 00:29:31;;;;;;;12.07;5.25;;;;;;;3.98;100.00;103057.75;5053799;28;20033;-75
2022/10/19 00:31:56;;;;;;;10.80;4.85;;;;;;;3.95;100.00;103051.72;5053162;28;20064;-75
2022/10/19 00:34:22;;;;;;;5.88;3.97;;;;;;;3.91;100.00;103055.31;5053601;28;20151;-75
2022/10/19 00:36:47;;;;;;;10.02;5.65;;;;;;;3.87;100.00;103057.19;5052986;28;20528;-75
2022/10/19 00:39:15;;;;;;;9.00;4.88;;;;;;;3.91;100.00;103066.72;5052171;28;20045;-75
2022/10/19 00:41:41;;;;;;;10.10;4.85;;;;;;;3.92;100.00;103062.34;5053227;28;20033;-75
2022/10/19 00:44:12;;;;;;;7.20;4.03;;;;;;;3.89;100.00;103060.63;5053550;28;20036;-75
2022/10/19 00:46:42;;;;;;;6.75;3.70;;;;;;;3.84;100.00;103060.75;5053202;28;20041;-78
2022/10/19 00:49:14;;;;;;;13.70;4.83;;;;;;;3.84;100.00;103052.88;5052226;28;20029;-75
2022/10/19 00:51:44;;;;;;;8.70;4.40;;;;;;;3.83;100.00;103053.75;5052802;28;20299;-76
2022/10/19 00:54:10;;;;;;;6.38;4.15;;;;;;;3.80;100.00;103045.94;5053226;28;20078;-76
2022/10/19 00:56:40;;;;;;;11.43;5.10;;;;;;;3.79;100.00;103048.63;5051509;28;20029;-76
2022/10/19 00:59:06;;;;;;;10.07;4.63;;;;;;;3.80;100.00;103051.22;5053034;28;20029;-75
2022/10/19 01:01:33;;;;;;;11.02;5.85;;;;;;;3.79;100.00;103054.78;5053218;28;20500;-75
2022/10/19 01:04:00;;;;;;;14.05;6.35;;;;;;;3.81;100.00;103060.00;5052698;28;20037;-76
2022/10/19 01:06:26;;;;;;;11.75;5.90;;;;;;;3.78;100.00;103066.19;5053050;28;20045;-76
2022/10/19 01:08:51;;;;;;;10.57;6.38;;;;;;;3.77;100.00;103053.06;5052538;28;20048;-76
2022/10/19 01:11:31;;;;;;;7.35;4.60;;;;;;;3.76;100.00;103052.19;5052894;28;20401;-76
2022/10/19 01:14:30;;;;;;;8.90;4.50;;;;;;;3.75;100.00;103055.75;5052342;28;20033;-75
2022/10/19 01:16:55;;;;;;;9.68;5.55;;;;;;;3.74;100.00;103048.75;5052312;28;20039;-75
2022/10/19 01:19:38;;;;;;;7.70;4.20;;;;;;;3.69;100.00;103048.00;5052813;28;20139;-76
2022/10/19 01:22:33;;;;;;;6.35;4.00;;;;;;;3.62;100.00;103044.66;5051119;28;20047;-76
2022/10/19 01:25:18;;;;;;;9.63;5.28;;;;;;;3.56;100.00;103041.34;5052308;28;20029;-76
2022/10/19 01:27:57;;;;;;;7.15;4.25;;;;;;;3.52;100.00;103041.41;5052414;28;20033;-76
2022/10/19 01:30:44;;;;;;;6.68;4.10;;;;;;;3.48;100.00;103036.28;5052972;28;20135;-76
2022/10/19 01:33:28;;;;;;;7.78;4.13;;;;;;;3.44;100.00;103027.56;5052469;28;20033;-75
2022/10/19 01:36:17;;;;;;;6.28;3.97;;;;;;;3.41;100.00;103024.16;5052173;28;20033;-76
2022/10/19 01:39:05;;;;;;;5.88;3.65;;;;;;;3.43;100.00;103023.19;5052633;28;20033;-76
2022/10/19 01:41:42;;;;;;;14.20;4.57;;;;;;;3.45;100.00;103020.53;5052605;28;20048;-75
2022/10/19 01:44:26;;;;;;;10.57;5.07;;;;;;;3.44;100.00;103022.31;5052066;28;20033;-76
2022/10/19 01:47:04;;;;;;;8.48;5.03;;;;;;;3.42;100.00;103024.13;5051766;28;20029;-76
2022/10/19 01:49:43;;;;;;;9.05;5.20;;;;;;;3.42;100.00;103026.75;5052308;28;20112;-76
2022/10/19 01:52:14;;;;;;;9.75;4.90;;;;;;;3.39;100.00;103024.22;5051852;28;20036;-76
2022/10/19 01:54:43;;;;;;;7.47;4.47;;;;;;;3.37;100.00;103030.41;5052360;28;20083;-76
2022/10/19 01:57:12;;;;;;;7.75;3.88;;;;;;;3.29;100.00;103026.19;5051533;28;20029;-76
2022/10/19 01:59:38;;;;;;;6.97;3.90;;;;;;;3.27;100.00;103029.75;5052264;28;20048;-76
2022/10/19 02:02:07;;;;;;;4.55;3.42;;;;;;;3.22;100.00;103027.25;5051566;28;20117;-76
2022/10/19 02:04:35;;;;;;;3.83;3.38;;;;;;;3.18;100.00;103029.09;5052040;28;20029;-76
2022/10/19 02:07:03;;;;;;;6.28;3.80;;;;;;;3.20;100.00;103028.22;5051828;28;20044;-76
2022/10/19 02:09:28;;;;;;;5.10;3.53;;;;;;;3.17;100.00;103023.88;5056322;28;20041;-75
2022/10/19 02:11:58;;;;;;;4.15;3.25;;;;;;;3.17;100.00;103027.34;5055944;28;20035;-76
2022/10/19 02:14:31;;;;;;;7.20;3.78;;;;;;;3.16;100.00;103022.13;5056325;28;20029;-75
2022/10/19 02:17:04;;;;;;;7.07;3.50;;;;;;;3.12;100.00;103007.31;5055802;28;20108;-76
2022/10/19 02:19:29;;;;;;;6.78;4.72;;;;;;;3.09;100.00;102999.50;5056219;28;20190;-75
2022/10/19 02:21:55;;;;;;;7.40;4.10;;;;;;;3.09;100.00;103000.38;5054372;28;20476;-76
2022/10/19 02:24:20;;;;;;;8.82;4.13;;;;;;;3.09;100.00;102996.88;5056131;28;20078;-75
2022/10/19 02:26:46;;;;;;;6.28;3.50;;;;;;;3.12;100.00;102991.53;5055991;28;20036;-75
2022/10/19 02:29:14;;;;;;;10.18;4.45;;;;;;;3.10;100.00;102991.56;5055453;28;20381;-76
2022/10/19 02:31:39;;;;;;;6.07;3.53;;;;;;;3.12;100.00;102992.41;5055902;28;20436;-76
2022/10/19 02:34:05;;;;;;;6.00;3.35;;;;;;;3.12;100.00;102994.16;5054253;28;20033;-76
2022/10/19 02:36:31;;;;;;;7.20;3.80;;;;;;;3.12;100.00;102999.44;5055477;28;20036;-76
2022/10/19 02:38:56;;;;;;;8.68;3.50;;;;;;;3.10;100.00;102994.22;5055418;28;20040;-76
2022/10/19 02:41:41;;;;;;;7.88;3.70;;;;;;;3.09;100.00;102996.88;5055481;28;20040;-76
2022/10/19 02:44:18;;;;;;;4.80;3.22;;;;;;;3.05;100.00;102992.63;5054958;28;20443;-76
2022/10/19 02:46:48;;;;;;;6.30;3.22;;;;;;;3.00;100.00;102990.06;5055748;28;20059;-76
2022/10/19 02:49:14;;;;;;;3.53;3.20;;;;;;;2.95;100.00;102992.81;5055277;28;20083;-76
2022/10/19 02:51:56;;;;;;;10.13;4.55;;;;;;;2.94;100.00;102987.59;5055488;28;20438;-76
2022/10/19 02:54:22;;;;;;;7.07;4.10;;;;;;;2.94;100.00;102985.84;5055631;28;20466;-76
2022/10/19 02:56:48;;;;;;;5.47;3.92;;;;;;;2.93;100.00;102978.00;5055268;28;20040;-76
2022/10/19 02:59:13;;;;;;;5.28;3.53;;;;;;;2.91;100.00;102978.03;5054957;28;20436;-76
2022/10/19 03:01:39;;;;;;;5.38;3.75;;;;;;;2.90;100.00;102984.19;5055104;28;20037;-76
2022/10/19 03:04:04;;;;;;;6.70;4.25;;;;;;;2.89;100.00;102984.22;5054569;28;20048;-76
2022/10/19 03:06:29;;;;;;;5.40;3.47;;;;;;;2.86;100.00;102989.56;5055073;28;20123;-76
2022/10/19 03:08:55;;;;;;;5.95;3.83;;;;;;;2.86;100.00;102979.03;5054605;28;20021;-76
2022/10/19 03:11:20;;;;;;;7.45;3.72;;;;;;;2.88;100.00;102983.38;5054277;28;20458;-76
2022/10/19 03:13:46;;;;;;;4.07;3.30;;;;;;;2.88;100.00;102980.75;5054903;28;20132;-76
2022/10/19 03:16:12;;;;;;;8.50;4.03;;;;;;;2.88;100.00;102982.47;5054395;28;20385;-76
2022/10/19 03:18:38;;;;;;;6.88;3.92;;;;;;;2.89;100.00;102978.97;5058068;28;20329;-75
2022/10/19 03:21:06;;;;;;;4.55;3.42;;;;;;;2.86;100.00;102976.41;5066850;28;20048;-76
2022/10/19 03:23:32;;;;;;;6.57;3.60;;;;;;;2.86;100.00;102971.16;5054967;28;20162;-76
2022/10/19 03:25:57;;;;;;;7.22;3.65;;;;;;;2.87;100.00;102963.22;5054590;28;20120;-78
2022/10/19 03:28:23;;;;;;;7.65;4.30;;;;;;;2.88;100.00;102961.44;5053454;28;20506;-75
2022/10/19 03:30:48;;;;;;;7.72;3.60;;;;;;;2.86;100.00;102964.13;5054714;28;20029;-76
2022/10/19 03:33:13;;;;;;;6.68;3.90;;;;;;;2.89;100.00;102961.41;5054462;28;20486;-75
2022/10/19 03:35:39;;;;;;;10.77;5.68;;;;;;;2.93;100.00;102963.06;5054761;28;20083;-76
2022/10/19 03:38:04;;;;;;;5.75;4.13;;;;;;;2.92;100.00;102961.34;5054334;28;20068;-77
2022/10/19 03:40:29;;;;;;;8.65;4.78;;;;;;;2.94;100.00;102958.66;5054846;28;20064;-76
2022/10/19 03:42:55;;;;;;;8.50;6.10;;;;;;;2.96;100.00;102963.00;5054633;28;20033;-76
2022/10/19 03:45:20;;;;;;;8.85;5.60;;;;;;;2.93;100.00;102957.81;5053970;28;20078;-76
2022/10/19 03:47:49;;;;;;;8.20;5.50;;;;;;;2.94;100.00;102954.28;5054386;28;20155;-76
2022/10/19 03:50:16;;;;;;;7.63;4.78;;;;;;;2.94;100.00;102964.81;5054060;28;20029;-76
2022/10/19 03:52:42;;;;;;;4.88;4.13;;;;;;;2.89;100.00;102961.41;5054381;28;20033;-76
2022/10/19 03:55:09;;;;;;;9.50;4.90;;;;;;;2.84;100.00;102968.56;5053982;28;20086;-77
2022/10/19 03:57:34;;;;;;;9.20;5.63;;;;;;;2.84;100.00;102965.94;5054372;28;20028;-76
2022/10/19 03:59:59;;;;;;;7.25;4.75;;;;;;;2.83;100.00;102967.66;5052999;28;20036;-76
2022/10/19 04:02:25;;;;;;;6.57;4.80;;;;;;;2.80;100.00;102966.91;5053890;28;20048;-77
2022/10/19 04:04:50;;;;;;;8.48;4.82;;;;;;;2.79;100.00;102970.41;5054316;28;20061;-77
2022/10/19 04:07:15;;;;;;;7.80;4.80;;;;;;;2.76;100.00;102968.75;5053832;28;20033;-77
2022/10/19 04:09:41;;;;;;;8.27;5.38;;;;;;;2.77;100.00;102966.97;5054140;28;20036;-77
2022/10/19 04:12:06;;;;;;;11.45;6.28;;;;;;;2.80;100.00;102959.00;5053708;28;20474;-76
2022/10/19 04:14:31;;;;;;;9.30;6.07;;;;;;;2.81;100.00;102958.13;5054352;28;20029;-77
2022/10/19 04:16:57;;;;;;;10.23;6.50;;;;;;;2.81;100.00;102956.34;5053708;28;20449;-77
2022/10/19 04:19:22;;;;;;;13.85;8.23;;;;;;;2.83;100.00;102954.53;5053597;28;20032;-77
2022/10/19 04:21:48;;;;;;;10.45;6.38;;;;;;;2.84;100.00;102952.78;5053298;28;20160;-77
2022/10/19 04:24:16;;;;;;;16.23;7.63;;;;;;;2.85;100.00;102945.75;5052253;28;20044;-77
2022/10/19 04:26:47;;;;;;;12.10;6.80;;;;;;;2.87;100.00;102936.94;5053979;28;20120;-77
2022/10/19 04:29:14;;;;;;;10.57;6.47;;;;;;;2.89;100.00;102950.03;5051953;28;20503;-75
2022/10/19 04:31:39;;;;;;;28.48;12.07;;;;;;;3.04;100.00;102946.16;5051520;28;20032;-76
2022/10/19 04:34:06;;;;;;;15.43;8.98;;;;;;;3.17;100.00;102947.59;5053403;28;20520;-76
2022/10/19 04:36:31;;;;;;;21.48;10.93;;;;;;;3.22;100.00;102956.22;5053614;28;20469;-76
2022/10/19 04:38:57;;;;;;;18.52;10.57;;;;;;;3.24;100.00;102957.03;5053665;28;20111;-76
2022/10/19 04:41:22;;;;;;;14.57;7.88;;;;;;;3.23;100.00;102959.72;5052838;28;20033;-76
2022/10/19 04:43:53;;;;;;;10.32;7.30;;;;;;;3.18;100.00;102959.84;5052163;28;20037;-76
2022/10/19 04:46:18;;;;;;;14.10;7.18;;;;;;;3.12;100.00;102955.59;5053230;28;20036;-76
2022/10/19 04:48:45;;;;;;;12.02;8.15;;;;;;;3.09;100.00;102955.69;5053487;28;20088;-76
2022/10/19 04:51:11;;;;;;;15.45;9.38;;;;;;;3.11;100.00;102953.00;5052647;28;20033;-77
2022/10/19 04:53:38;;;;;;;13.85;9.30;;;;;;;3.13;100.00;102956.44;5053258;28;20060;-76
2022/10/19 04:56:10;;;;;;;17.52;10.63;;;;;;;3.17;100.00;102960.72;5053312;28;20115;-76
2022/10/19 04:58:35;;;;;;;13.35;8.65;;;;;;;3.15;100.00;102968.66;5053229;28;20469;-75
2022/10/19 05:01:13;;;;;;;12.82;8.80;;;;;;;3.15;100.00;102962.53;5053298;28;20056;-73
2022/10/19 05:03:39;;;;;;;20.23;10.75;;;;;;;3.18;100.00;102967.72;5053054;28;20477;-75
2022/10/19 05:06:06;;;;;;;14.73;8.02;;;;;;;3.17;100.00;102966.84;5053013;28;20021;-75
2022/10/19 05:08:32;;;;;;;12.50;8.55;;;;;;;3.13;100.00;102975.72;5052607;28;20033;-76
2022/10/19 05:11:09;;;;;;;16.40;9.68;;;;;;;3.14;100.00;102979.22;5052956;28;20064;-76
2022/10/19 05:13:34;;;;;;;11.27;7.40;;;;;;;3.14;100.00;102969.56;5052611;28;20032;-73
2022/10/19 05:16:02;;;;;;;13.10;7.57;;;;;;;3.10;100.00;102957.38;5052711;28;20036;-74
2022/10/19 05:18:28;;;;;;;16.15;8.80;;;;;;;3.08;100.00;102953.94;5052405;28;20044;-74
2022/10/19 05:21:05;;;;;;;13.60;8.18;;;;;;;3.07;100.00;102960.09;5050817;28;20052;-74
2022/10/19 05:23:30;;;;;;;14.02;8.50;;;;;;;3.07;100.00;102959.25;5051125;28;20362;-75
2022/10/19 05:26:05;;;;;;;12.32;8.05;;;;;;;3.04;100.00;102965.44;5052685;28;20058;-75
2022/10/19 05:28:31;;;;;;;17.10;10.02;;;;;;;3.06;100.00;102971.53;5052035;28;20114;-73
2022/10/19 05:31:04;;;;;;;19.25;9.85;;;;;;;3.08;100.00;102968.88;5052602;28;20025;-73
2022/10/19 05:33:29;;;;;;;16.33;9.23;;;;;;;3.06;100.00;102963.66;5052159;28;20029;-72
2022/10/19 05:35:55;;;;;;;11.40;7.18;;;;;;;3.04;100.00;102967.22;5052533;28;20127;-74
2022/10/19 05:38:20;;;;;;;12.93;8.00;;;;;;;3.01;100.00;102962.88;5051872;28;20094;-74
2022/10/19 05:40:46;;;;;;;12.30;8.98;;;;;;;2.97;100.00;102962.09;5052596;28;20025;-76
2022/10/19 05:43:11;;;;;;;13.23;8.00;;;;;;;2.98;100.00;102958.53;5051407;28;20068;-71
2022/10/19 05:45:37;;;;;;;12.38;7.95;;;;;;;2.98;100.00;102960.31;5051747;28;20033;-75
2022/10/19 05:48:02;;;;;;;12.45;7.47;;;;;;;2.95;100.00;102956.00;5052039;28;20033;-73
2022/10/19 05:50:27;;;;;;;14.00;8.63;;;;;;;2.91;100.00;102943.84;5052101;28;20037;-71
2022/10/19 05:52:53;;;;;;;14.55;8.50;;;;;;;2.90;100.00;102942.09;5037442;28;20587;-72
2022/10/19 05:55:18;;;;;;;18.13;8.65;;;;;;;2.90;100.00;102938.63;5029219;28;20040;-74
2022/10/19 05:57:43;;;;;;;11.70;8.55;;;;;;;2.94;100.00;102930.63;5037587;28;20033;-75
2022/10/19 06:00:10;;;;;;;12.75;8.40;;;;;;;2.97;100.00;102935.81;5047571;28;20069;-75
2022/10/19 06:02:35;;;;;;;16.00;9.45;;;;;;;2.98;100.00;102940.13;5048510;28;20114;-76
2022/10/19 06:05:00;;;;;;;22.20;9.98;;;;;;;3.04;100.00;102936.50;5049026;28;20079;-74
2022/10/19 06:07:26;;;;;;;18.35;9.43;;;;;;;3.05;100.00;102937.38;5049033;28;20037;-74
2022/10/19 06:09:51;;;;;;;11.80;7.80;;;;;;;3.03;100.00;102928.66;5049009;28;20029;-74
2022/10/19 06:12:18;;;;;;;15.90;8.52;;;;;;;3.04;100.00;102933.00;5049176;28;20366;-73
2022/10/19 06:14:44;;;;;;;23.25;9.95;;;;;;;3.03;100.00;102921.63;5048986;28;20043;-74
2022/10/19 06:17:09;;;;;;;15.18;8.93;;;;;;;3.03;100.00;102928.66;5048945;28;20029;-74
2022/10/19 06:19:35;;;;;;;13.50;8.30;;;;;;;3.01;100.00;102923.44;5048964;28;20064;-75
2022/10/19 06:22:01;;;;;;;17.05;8.95;;;;;;;2.99;100.00;102922.63;5049131;28;20111;-72
2022/10/19 06:24:26;;;;;;;19.00;9.88;;;;;;;3.02;100.00;102921.69;5048280;28;20059;-73
2022/10/19 06:26:52;;;;;;;21.13;10.27;;;;;;;3.04;100.00;102925.13;5048785;28;20037;-74
2022/10/19 06:29:17;;;;;;;18.45;9.10;;;;;;;3.07;100.00;102920.63;5047939;28;20045;-73
2022/10/19 06:31:42;;;;;;;15.70;9.13;;;;;;;3.13;100.00;102923.09;5048488;28;20059;-73
2022/10/19 06:34:08;;;;;;;13.85;8.63;;;;;;;3.14;100.00;102924.84;5047790;28;20032;-74
2022/10/19 06:36:33;;;;;;;12.05;7.55;;;;;;;3.15;100.00;102933.59;5048864;28;20557;-74
2022/10/19 06:39:00;;;;;;;18.45;8.80;;;;;;;3.15;100.00;102936.22;5049069;28;20059;-72
2022/10/19 06:41:25;;;;;;;21.92;10.07;;;;;;;3.18;100.00;102933.53;5048115;28;20029;-70
2022/10/19 06:43:52;;;;;;;15.82;7.97;;;;;;;3.25;100.00;102939.47;5049112;28;20039;-71
2022/10/19 06:46:19;;;;;;;13.80;8.68;;;;;;;3.29;100.00;102936.72;5047689;28;20519;-71
2022/10/19 06:48:59;;;;;;;14.80;8.95;;;;;;;3.35;100.00;102928.66;5048078;28;20187;-71
2022/10/19 06:51:26;;;;;;;19.15;9.88;;;;;;;3.47;100.00;102934.53;5048585;28;20043;-73
2022/10/19 06:53:52;;;;;;;21.95;10.13;;;;;;;3.55;100.00;102935.16;5050060;28;20029;-72
2022/10/19 06:56:18;;;;;;;15.98;8.82;;;;;;;3.61;100.00;102947.28;5052504;28;20037;-72
2022/10/19 06:58:43;;;;;;;17.48;8.60;;;;;;;3.65;100.00;102939.25;5053486;28;20487;-71
2022/10/19 07:01:10;;;;;;;18.88;8.82;;;;;;;3.68;100.00;102931.28;5051713;28;20033;-71
2022/10/19 07:03:36;;;;;;;13.60;7.63;;;;;;;3.75;100.00;102931.97;5051452;28;20037;-73
2022/10/19 07:06:04;;;;;;;18.27;9.45;;;;;;;3.81;100.00;102925.69;5052257;28;20036;-73
2022/10/19 07:08:31;;;;;;;19.15;9.02;;;;;;;3.96;100.00;102924.38;5050305;28;20086;-72
2022/10/19 07:11:03;;;;;;;20.13;9.40;;;;;;;4.02;100.00;102918.94;5051809;28;20489;-72
2022/10/19 07:13:29;;;;;;;17.27;8.82;;;;;;;4.12;100.00;102928.28;5051743;28;20492;-76
2022/10/19 07:15:58;;;;;;;17.67;8.73;;;;;;;4.20;100.00;102918.34;5051678;28;20033;-73
2022/10/19 07:18:25;;;;;;;17.23;8.80;;;;;;;4.28;100.00;102920.75;5051913;28;20036;-72
2022/10/19 07:20:55;;;;;;;23.38;9.13;;;;;;;4.37;100.00;102936.31;5051121;28;20512;-71
2022/10/19 07:23:21;;;;;;;16.35;8.75;;;;;;;4.44;100.00;102934.34;5051786;28;20045;-71
2022/10/19 07:25:46;;;;;;;15.23;8.32;;;;;;;4.51;100.00;102937.63;5051106;28;20492;-72
2022/10/19 07:28:12;;;;;;;18.65;8.30;;;;;;;4.59;100.00;102939.09;5051247;28;20500;-68
2022/10/19 07:30:38;;;;;;;19.88;9.18;;;;;;;4.73;100.00;102932.53;5051304;28;20040;-71
2022/10/19 07:33:03;;;;;;;18.70;9.23;;;;;;;4.81;100.00;102938.44;5051869;28;20362;-73
2022/10/19 07:35:29;;;;;;;10.48;6.85;;;;;;;4.89;100.00;102933.75;5051426;28;20079;-75
2022/10/19 07:37:54;;;;;;;20.08;8.73;;;;;;;5.00;100.00;102943.09;5049849;28;20370;-70
2022/10/19 07:40:20;;;;;;;16.55;8.60;;;;;;;5.08;100.00;102934.00;5051248;28;20029;-71
2022/10/19 07:42:45;;;;;;;20.65;9.13;;;;;;;5.21;100.00;102936.22;5051140;28;20078;-70
2022/10/19 07:45:11;;;;;;;22.20;8.35;;;;;;;5.37;100.00;102942.69;5051412;28;20045;-70
2022/10/19 07:47:36;;;;;;;15.95;8.13;;;;;;;5.50;100.00;102944.91;5050286;28;20060;-70
2022/10/19 07:50:01;;;;;;;18.33;8.13;;;;;;;5.63;100.00;102941.78;5051748;28;20036;-71
2022/10/19 07:52:27;;;;;;;16.02;7.38;;;;;;;5.72;100.00;102939.69;5066347;28;20044;-72
2022/10/19 07:54:52;;;;;;;15.32;7.25;;;;;;;5.81;100.00;102931.47;5070535;28;20033;-73
2022/10/19 07:57:18;;;;;;;13.18;7.25;;;;;;;5.92;100.00;102934.53;5071117;28;20041;-71
2022/10/19 07:59:43;;;;;;;18.08;7.13;;;;;;;6.00;100.00;102929.88;5070230;28;20035;-69
2022/10/19 08:02:15;;;;;;;13.90;7.22;;;;;;;6.15;100.00;102932.84;5071314;28;20546;-71
2022/10/19 08:04:40;;;;;;;;;;;;;;;6.33;100.00;102931.28;5069632;28;20032;-71
2022/10/19 08:07:05;;;;;;;11.35;5.60;;;;;;;6.52;100.00;102926.09;5070737;28;20281;-72
2022/10/19 08:09:31;;;;;;;13.10;6.80;;;;;;;6.66;100.00;102918.50;5070884;28;20036;-71
2022/10/19 08:11:56;;;;;;;12.60;6.50;;;;;;;6.83;100.00;102914.28;5070565;28;20043;-69
2022/10/19 08:14:21;;;;;;;11.30;5.68;;;;;;;7.03;100.00;102906.38;5071027;28;20060;-70
2022/10/19 08:16:47;;;;;;;9.05;4.65;;;;;;;7.17;100.00;102897.81;5069730;28;20043;-71
2022/10/19 08:19:14;;;;;;;7.90;4.80;;;;;;;7.33;100.00;102894.50;5070647;28;20068;-72
2022/10/19 08:21:41;;;;;;;10.63;4.40;;;;;;;7.48;100.00;102899.13;5069826;28;20052;-71
2022/10/19 08:24:07;;;;;;;8.93;4.57;;;;;;;7.68;100.00;102906.16;5070453;28;20117;-70
2022/10/19 08:26:36;;;;;;;11.07;4.47;;;;;;;7.84;100.00;102893.09;5070626;28;20040;-71
2022/10/19 08:29:04;;;;;;;7.80;4.28;;;;;;;7.99;100.00;102894.16;5070186;28;20032;-70
2022/10/19 08:31:30;;;;;;;8.10;3.85;;;;;;;8.11;100.00;102880.31;5070417;28;20024;-72
2022/10/19 08:33:56;;;;;;;8.18;3.38;;;;;;;8.24;100.00;102890.34;5069854;28;20032;-70
2022/10/19 08:36:21;;;;;;;11.75;3.20;;;;;;;8.32;100.00;102888.19;5070665;28;20043;-71
2022/10/19 08:38:47;;;;;;;14.18;3.95;;;;;;;8.41;100.00;102889.53;5068693;28;20113;-72
2022/10/19 08:41:18;;;;;;;10.65;3.38;;;;;;;8.59;100.00;102880.69;5069822;28;20107;-69
2022/10/19 08:44:22;;;;;;;7.47;2.90;;;;;;;8.76;100.00;102879.00;5069974;28;20082;-70
2022/10/19 08:47:08;;;;;;;6.65;2.72;;;;;;;9.06;100.00;102879.25;5066801;28;20185;-70
2022/10/19 08:49:35;;;;;;;6.60;2.78;;;;;;;9.52;100.00;102876.81;5070318;28;20249;-70
2022/10/19 08:52:06;;;;;;;12.45;2.53;;;;;;;10.02;100.00;102880.28;5069251;28;20055;-72
2022/10/19 08:54:42;;;;;;;7.13;2.83;;;;;;;10.98;100.00;102888.13;5063624;28;20335;-71
2022/10/19 08:57:31;;;;;;;5.20;2.33;;;;;;;12.13;100.00;102880.13;5045641;28;20036;-71
2022/10/19 09:00:07;;;;;;;4.80;2.05;;;;;;;13.35;100.00;102880.00;5052002;28;20154;-71
2022/10/19 09:02:32;;;;;;;10.00;2.30;;;;;;;14.16;100.00;102871.59;5052783;28;20029;-70
2022/10/19 09:05:04;;;;;;;6.43;1.80;;;;;;;14.91;100.00;102870.47;5051806;28;20047;-70
2022/10/19 09:07:33;;;;;;;7.88;2.00;;;;;;;15.55;100.00;102869.91;5052769;28;20105;-70
2022/10/19 09:10:03;;;;;;;5.10;1.80;;;;;;;16.33;93.39;102869.91;5051779;28;20103;-71
2022/10/19 09:12:35;;;;;;;8.90;2.20;;;;;;;16.50;91.04;102864.00;5052483;28;20029;-71
2022/10/19 09:15:17;;;;;;;6.72;2.03;;;;;;;16.76;86.46;102863.63;5052088;28;20457;-70
2022/10/19 09:17:42;;;;;;;9.63;1.75;;;;;;;17.42;81.79;102859.75;5052383;28;20116;-70
2022/10/19 09:20:17;;;;;;;5.85;1.83;;;;;;;17.62;80.53;102856.16;5051831;28;20120;-71
2022/10/19 09:22:43;;;;;;;6.43;1.77;;;;;;;17.09;77.84;102864.41;5052615;28;20056;-71
2022/10/19 09:25:20;;;;;;;5.40;1.80;;;;;;;16.57;83.01;102869.72;5051905;28;20029;-70
2022/10/19 09:27:59;;;;;;;9.32;2.00;;;;;;;16.17;88.04;102873.03;5051849;28;20080;-74
2022/10/19 09:30:26;;;;;;;5.63;1.65;;;;;;;16.44;87.85;102869.03;5052290;28;20033;-71
2022/10/19 09:33:00;;;;;;;10.05;1.95;;;;;;;16.42;87.10;102868.31;5051780;28;20032;-71
2022/10/19 09:35:31;;;;;;;5.40;1.70;;;;;;;16.92;82.99;102868.56;5051828;28;20075;-71
2022/10/19 09:37:56;;;;;;;7.90;1.50;;;;;;;16.94;82.35;102857.69;5051519;28;20086;-70
2022/10/19 09:40:28;;;;;;;4.97;1.60;;;;;;;16.58;82.59;102857.97;5028318;28;20041;-73
2022/10/19 09:42:57;;;;;;;4.05;1.13;;;;;;;15.90;86.31;102846.59;5028819;28;20041;-72
2022/10/19 09:45:39;;;;;;;10.52;1.92;;;;;;;15.44;89.15;102843.13;5029258;28;20159;-73
2022/10/19 09:48:16;;;;;;;5.75;1.42;;;;;;;15.20;90.29;102832.47;5029129;28;20044;-72
2022/10/19 09:50:43;;;;;;;10.93;1.95;;;;;;;14.97;92.18;102837.81;5028908;28;20473;-73
2022/10/19 09:53:18;;;;;;;5.50;1.67;;;;;;;14.75;95.34;102827.91;5028678;28;20799;-75
2022/10/19 09:55:49;;;;;;;6.63;1.77;;;;;;;14.37;97.55;102819.13;5029461;28;20055;-71
2022/10/19 09:58:16;;;;;;;5.38;1.60;;;;;;;14.40;100.00;102818.88;5029288;28;20034;-73
2022/10/19 10:00:45;;;;;;;5.50;1.90;;;;;;;14.12;100.00;102809.38;5029058;28;20087;-71
2022/10/19 10:03:29;;;;;;;9.70;2.33;;;;;;;13.73;100.00;102806.03;5026838;28;20025;-72
2022/10/19 10:06:05;;;;;;;7.55;1.98;;;;;;;13.32;100.00;102794.63;5028623;28;20029;-72
2022/10/19 10:08:34;;;;;;;12.98;2.40;;;;;;;13.09;100.00;102792.75;5028909;28;20112;-72
2022/10/19 10:11:34;;;;;;;11.68;2.20;;;;;;;12.74;100.00;102783.56;5028769;28;20052;-72
2022/10/19 10:14:15;;;;;;;6.82;1.90;;;;;;;12.63;100.00;102788.75;5027489;28;20049;-73
2022/10/19 10:16:40;;;;;;;;;;;;;;;12.39;100.00;102783.28;5032543;28;20037;-71
2022/10/19 10:19:11;;;;;;;6.70;1.92;;;;;;;12.31;100.00;102776.63;5042215;28;19916;-72
2022/10/19 10:21:56;;;;;;;5.00;1.60;;;;;;;12.08;100.00;102775.53;5048790;28;20477;-74
2022/10/19 10:24:32;;;;;;;5.03;1.30;;;;;;;12.33;100.00;102768.53;5032283;28;20052;-71
2022/10/19 10:27:00;;;;;;;9.13;1.80;;;;;;;12.54;100.00;102758.22;5028148;28;20037;-72
2022/10/19 10:29:37;;;;;;;6.78;2.47;;;;;;;12.74;100.00;102761.34;5031427;28;20030;-72
2022/10/19 10:32:33;;;;;;;5.38;1.52;;;;;;;12.69;100.00;102753.66;5032607;28;20037;-72
2022/10/19 10:35:01;;;;;;;7.97;1.77;;;;;;;12.81;100.00;102757.28;5030433;28;20488;-74
2022/10/19 10:37:45;;;;;;;10.75;1.88;;;;;;;12.80;100.00;102748.41;5032843;28;20402;-74
2022/10/19 10:40:30;;;;;;;5.13;1.02;;;;;;;12.90;100.00;102745.06;5032026;28;20087;-72
2022/10/19 10:43:02;;;;;;;2.97;1.27;;;;;;;12.84;100.00;102746.38;5032710;28;20030;-75
2022/10/19 10:45:41;;;;;;;4.63;1.05;;;;;;;12.81;100.00;102746.59;5032912;28;20124;-73
2022/10/19 10:48:23;;;;;;;8.60;1.40;;;;;;;12.63;100.00;102738.03;5032128;28;20064;-77
2022/10/19 10:50:50;;;;;;;5.30;1.35;;;;;;;12.63;100.00;102730.88;5032155;28;20061;-72
2022/10/19 10:53:33;;;;;;;6.53;1.90;;;;;;;12.47;100.00;102733.75;5031928;28;20652;-71
2022/10/19 10:56:00;;;;;;;3.75;1.25;;;;;;;12.35;100.00;102724.78;5031941;28;20033;-72
2022/10/19 10:58:33;;;;;;;4.63;1.95;;;;;;;12.30;100.00;102721.56;5040919;28;20552;-72
2022/10/19 11:01:04;;;;;;;7.97;1.77;;;;;;;12.20;100.00;102725.81;5051449;28;20423;-77
2022/10/19 11:03:31;;;;;;;3.43;1.47;;;;;;;12.20;100.00;102727.66;5054903;28;20025;-73
2022/10/19 11:06:01;;;;;;;5.05;1.65;;;;;;;12.18;100.00;102733.06;5055181;28;20021;-71
2022/10/19 11:08:50;;;;;;;8.65;2.00;;;;;;;12.26;100.00;102720.06;5055013;28;20473;-72
2022/10/19 11:11:27;;;;;;;5.93;1.63;;;;;;;12.41;100.00;102731.50;5054548;28;20068;-72
2022/10/19 11:14:03;;;;;;;4.80;1.90;;;;;;;12.42;100.00;102730.56;5055021;28;20039;-73
2022/10/19 11:16:41;;;;;;;7.28;2.05;;;;;;;12.43;100.00;102718.06;5054329;28;20071;-71
2022/10/19 11:19:22;;;;;;;10.20;1.88;;;;;;;12.50;100.00;102714.84;5053969;28;20393;-73
2022/10/19 11:22:09;;;;;;;4.15;1.80;;;;;;;12.44;100.00;102707.28;5054821;28;20544;-72
2022/10/19 11:24:49;;;;;;;6.72;2.08;;;;;;;12.46;100.00;102699.16;5054489;28;20137;-72
2022/10/19 11:27:39;;;;;;;6.57;2.13;;;;;;;12.39;100.00;102690.72;5052738;28;20377;-73
2022/10/19 11:30:12;;;;;;;6.43;2.35;;;;;;;12.43;100.00;102691.34;5053753;28;20033;-73